Time;durP1;ratioP1;P1;durP2;ratioP2;P2;SDS_P1;SDS_P2;PMS_P1;PMS_P2;Temp;Humidity;BMP_temperature;BMP_pressure;BME280_temperature;BME280_humidity;BME280_pressure;Samples;Min_cycle;Max_cycle;Signal;HPM_P1;HPM_P2
2021/01/22 00:01:00;;;;;;;0.00;0.00;;;9.00;89.50;;;;;;6216863;23;20004;-91
2021/01/22 00:03:26;;;;;;;0.00;0.00;;;8.90;89.70;;;;;;6216557;23;20019;-91
2021/01/22 00:05:52;;;;;;;0.00;0.00;;;8.80;89.80;;;;;;6216771;23;19993;-90
2021/01/22 00:08:19;;;;;;;0.00;0.00;;;8.80;89.80;;;;;;6216229;23;20168;-91
2021/01/22 00:10:45;;;;;;;0.00;0.00;;;8.80;89.80;;;;;;6215834;23;20260;-87
2021/01/22 00:13:11;;;;;;;0.00;0.00;;;8.70;89.80;;;;;;6215681;23;20011;-91
2021/01/22 00:15:38;;;;;;;0.30;0.00;;;8.70;89.80;;;;;;6214687;23;20230;-89
2021/01/22 00:18:04;;;;;;;0.00;0.00;;;8.70;89.80;;;;;;6216891;23;20261;-89
2021/01/22 00:20:30;;;;;;;0.00;0.00;;;8.60;89.90;;;;;;6216603;23;20001;-90
2021/01/22 00:22:57;;;;;;;1.85;0.10;;;8.60;89.90;;;;;;6189785;23;20377;-90
2021/01/22 00:25:23;;;;;;;0.00;0.00;;;8.50;89.90;;;;;;6218695;23;20004;-88
2021/01/22 00:27:49;;;;;;;0.00;0.00;;;8.50;89.90;;;;;;6217381;23;20261;-88
2021/01/22 00:30:16;;;;;;;0.00;0.00;;;8.40;89.90;;;;;;6216106;23;20015;-90
2021/01/22 00:32:42;;;;;;;0.00;0.00;;;8.40;89.90;;;;;;6216735;23;20004;-90
2021/01/22 00:35:09;;;;;;;0.00;0.00;;;8.40;89.90;;;;;;6216448;23;19996;-89
2021/01/22 00:37:35;;;;;;;0.00;0.00;;;8.30;89.90;;;;;;6215328;23;20023;-90
2021/01/22 00:40:03;;;;;;;0.00;0.00;;;8.30;90.00;;;;;;6216506;23;20221;-91
2021/01/22 00:42:29;;;;;;;0.00;0.00;;;8.30;90.00;;;;;;6215524;23;20008;-90
2021/01/22 00:44:55;;;;;;;0.20;0.10;;;8.30;90.00;;;;;;6215937;23;20001;-91
2021/01/22 00:47:23;;;;;;;0.57;0.20;;;8.30;89.90;;;;;;6215237;23;20025;-91
2021/01/22 00:49:49;;;;;;;0.00;0.00;;;8.20;89.80;;;;;;6214771;23;20000;-91
2021/01/22 00:52:15;;;;;;;0.00;0.00;;;8.20;89.90;;;;;;6215886;23;20264;-90
2021/01/22 00:54:42;;;;;;;0.00;0.00;;;8.20;89.90;;;;;;6217273;23;20396;-90
2021/01/22 00:57:08;;;;;;;0.00;0.00;;;8.30;89.80;;;;;;6215450;23;20004;-91
2021/01/22 00:59:34;;;;;;;0.00;0.00;;;8.20;89.70;;;;;;6215082;23;20004;-91
2021/01/22 01:02:01;;;;;;;0.20;0.00;;;8.20;89.70;;;;;;6213996;23;20017;-91
2021/01/22 01:04:27;;;;;;;0.00;0.00;;;8.20;89.80;;;;;;6215370;23;20016;-89
2021/01/22 01:06:53;;;;;;;0.00;0.00;;;8.20;89.80;;;;;;6215807;23;20016;-91
2021/01/22 01:09:20;;;;;;;0.15;0.10;;;8.20;89.70;;;;;;6217660;23;20419;-90
2021/01/22 01:11:46;;;;;;;0.10;0.00;;;8.10;89.70;;;;;;6217327;23;19997;-92
2021/01/22 01:14:12;;;;;;;0.00;0.00;;;8.10;90.20;;;;;;6215601;23;20004;-91
2021/01/22 01:16:39;;;;;;;0.00;0.00;;;8.00;90.00;;;;;;6215962;23;20012;-89
2021/01/22 01:19:05;;;;;;;0.00;0.00;;;7.90;90.00;;;;;;6217337;23;20000;-87
2021/01/22 01:21:32;;;;;;;0.00;0.00;;;8.00;90.00;;;;;;6189547;23;20000;-89
2021/01/22 01:23:58;;;;;;;0.00;0.00;;;8.00;90.00;;;;;;6189281;23;20249;-89
2021/01/22 01:26:24;;;;;;;0.00;0.00;;;8.00;89.80;;;;;;6217949;23;19997;-87
2021/01/22 01:28:51;;;;;;;0.00;0.00;;;8.00;89.80;;;;;;6216257;23;20233;-89
2021/01/22 01:31:17;;;;;;;0.00;0.00;;;7.90;89.80;;;;;;6215488;23;20288;-89
2021/01/22 01:33:44;;;;;;;0.00;0.00;;;7.90;90.30;;;;;;6215593;23;20024;-90
2021/01/22 01:36:10;;;;;;;0.00;0.00;;;7.90;90.00;;;;;;6216882;23;20011;-90
2021/01/22 01:38:37;;;;;;;0.05;0.00;;;7.90;90.00;;;;;;6215145;23;20257;-89
2021/01/22 01:41:03;;;;;;;0.00;0.00;;;7.90;90.00;;;;;;6189503;23;20004;-90
2021/01/22 01:43:29;;;;;;;0.00;0.00;;;7.80;90.00;;;;;;6216134;23;20003;-90
2021/01/22 01:45:56;;;;;;;0.10;0.00;;;7.80;90.00;;;;;;6215236;23;20012;-90
2021/01/22 01:48:22;;;;;;;0.00;0.00;;;7.80;90.00;;;;;;6213958;23;20008;-90
2021/01/22 01:50:48;;;;;;;0.00;0.00;;;7.70;90.00;;;;;;6214468;23;19996;-90
2021/01/22 01:53:15;;;;;;;0.00;0.00;;;7.70;90.00;;;;;;6216983;23;20011;-90
2021/01/22 01:55:41;;;;;;;1.23;0.22;;;7.60;90.00;;;;;;6218013;23;19996;-88
2021/01/22 01:58:08;;;;;;;0.00;0.00;;;7.50;90.10;;;;;;6188765;23;20011;-91
2021/01/22 02:00:35;;;;;;;0.00;0.00;;;7.50;90.10;;;;;;6215818;23;20012;-90
2021/01/22 02:03:01;;;;;;;0.00;0.00;;;7.50;90.10;;;;;;6215360;23;20000;-89
2021/01/22 02:05:28;;;;;;;0.08;0.00;;;7.50;90.20;;;;;;6215334;23;19992;-90
2021/01/22 02:07:54;;;;;;;0.00;0.00;;;7.50;90.10;;;;;;6217119;23;19993;-87
2021/01/22 02:10:20;;;;;;;0.00;0.00;;;7.40;90.10;;;;;;6217834;23;19993;-89
2021/01/22 02:12:47;;;;;;;0.00;0.00;;;7.40;90.10;;;;;;6216461;23;20244;-89
2021/01/22 02:15:14;;;;;;;0.00;0.00;;;7.40;90.10;;;;;;6215254;23;20241;-90
2021/01/22 02:17:44;;;;;;;0.00;0.00;;;7.40;90.10;;;;;;6215613;23;20001;-87
2021/01/22 02:20:45;;;;;;;0.00;0.00;;;7.40;90.10;;;;;;6216953;23;20275;-88
2021/01/22 02:23:12;;;;;;;0.00;0.00;;;7.40;90.10;;;;;;6187375;23;20027;-88
2021/01/22 02:25:40;;;;;;;0.00;0.00;;;7.40;90.10;;;;;;6215170;23;20001;-89
2021/01/22 02:28:11;;;;;;;0.10;0.00;;;7.30;90.10;;;;;;6214927;23;20016;-88
2021/01/22 02:30:43;;;;;;;0.00;0.00;;;7.30;90.10;;;;;;6215959;23;20009;-89
2021/01/22 02:33:11;;;;;;;0.10;0.00;;;7.30;90.10;;;;;;6215792;23;19997;-86
2021/01/22 02:35:37;;;;;;;0.00;0.00;;;7.30;90.10;;;;;;6215210;23;19997;-88
2021/01/22 02:38:04;;;;;;;0.00;0.00;;;7.40;90.10;;;;;;6215203;23;20125;-88
2021/01/22 02:40:31;;;;;;;0.00;0.00;;;7.30;90.10;;;;;;6216814;23;20373;-89
2021/01/22 02:42:57;;;;;;;0.00;0.00;;;7.30;90.10;;;;;;6216162;23;20001;-89
2021/01/22 02:45:23;;;;;;;0.00;0.00;;;7.30;90.20;;;;;;6215535;23;20028;-88
2021/01/22 02:47:50;;;;;;;0.00;0.00;;;7.30;90.20;;;;;;6215033;23;20004;-89
2021/01/22 02:50:30;;;;;;;0.00;0.00;;;7.30;90.20;;;;;;6215074;23;20023;-89
2021/01/22 02:53:03;;;;;;;0.00;0.00;;;7.20;90.20;;;;;;6215145;23;19997;-90
2021/01/22 02:55:30;;;;;;;0.00;0.00;;;7.30;90.20;;;;;;6213520;23;20431;-91
2021/01/22 02:58:00;;;;;;;0.00;0.00;;;7.20;90.10;;;;;;6214927;23;19997;-90
2021/01/22 03:00:31;;;;;;;0.00;0.00;;;7.20;90.20;;;;;;6216177;23;20016;-90
2021/01/22 03:03:05;;;;;;;0.00;0.00;;;7.20;90.20;;;;;;6212761;23;20280;-88
2021/01/22 03:05:32;;;;;;;0.00;0.00;;;7.20;90.20;;;;;;6211219;23;20082;-88
2021/01/22 03:08:00;;;;;;;0.38;0.38;;;7.20;90.20;;;;;;6215215;23;19999;-88
2021/01/22 03:10:26;;;;;;;0.00;0.00;;;7.10;90.20;;;;;;6213188;23;20001;-89
2021/01/22 03:12:54;;;;;;;0.00;0.00;;;7.10;90.20;;;;;;6215026;23;20001;-89
2021/01/22 03:15:21;;;;;;;0.00;0.00;;;7.00;90.20;;;;;;6213693;23;20015;-85
2021/01/22 03:17:47;;;;;;;0.00;0.00;;;7.00;90.20;;;;;;6214969;23;20020;-89
2021/01/22 03:20:17;;;;;;;0.20;0.10;;;7.00;90.20;;;;;;6189144;23;20399;-90
2021/01/22 03:22:44;;;;;;;0.35;0.10;;;7.10;90.20;;;;;;6215405;23;20248;-88
2021/01/22 03:25:11;;;;;;;0.00;0.00;;;7.10;90.20;;;;;;6216163;23;20001;-87
2021/01/22 03:27:39;;;;;;;0.10;0.00;;;7.10;90.20;;;;;;6216523;23;20000;-91
2021/01/22 03:30:06;;;;;;;0.00;0.00;;;7.00;90.20;;;;;;6215239;23;19997;-90
2021/01/22 03:32:32;;;;;;;0.00;0.00;;;7.00;90.20;;;;;;6215389;23;20008;-88
2021/01/22 03:34:59;;;;;;;0.00;0.00;;;6.90;90.20;;;;;;6218554;23;20016;-91
2021/01/22 03:37:25;;;;;;;0.00;0.00;;;6.90;90.20;;;;;;6217906;23;20051;-90
2021/01/22 03:39:51;;;;;;;0.00;0.00;;;6.90;90.20;;;;;;6219305;23;19992;-91
2021/01/22 03:42:18;;;;;;;0.00;0.00;;;6.90;90.20;;;;;;6189891;23;20004;-90
2021/01/22 03:44:44;;;;;;;0.00;0.00;;;6.80;90.20;;;;;;6216699;23;19996;-90
2021/01/22 03:47:10;;;;;;;0.20;0.05;;;6.80;90.20;;;;;;6216146;23;20008;-90
2021/01/22 03:49:37;;;;;;;0.00;0.00;;;6.80;90.20;;;;;;6216525;23;19993;-91
2021/01/22 03:52:03;;;;;;;0.00;0.00;;;6.80;90.20;;;;;;6218267;23;20001;-90
2021/01/22 03:54:29;;;;;;;0.00;0.00;;;6.80;90.20;;;;;;6216178;23;20264;-90
2021/01/22 03:56:56;;;;;;;0.00;0.00;;;6.80;90.20;;;;;;6216897;23;20391;-91
2021/01/22 03:59:22;;;;;;;0.00;0.00;;;6.80;90.30;;;;;;6216692;23;20001;-89
2021/01/22 04:01:48;;;;;;;0.00;0.00;;;6.70;90.20;;;;;;6215268;23;20009;-89
2021/01/22 04:04:15;;;;;;;0.00;0.00;;;6.80;90.20;;;;;;6216049;23;20000;-91
2021/01/22 04:06:41;;;;;;;0.00;0.00;;;6.80;90.20;;;;;;6215318;23;20407;-91
2021/01/22 04:09:07;;;;;;;0.00;0.00;;;6.80;90.20;;;;;;6217673;23;20001;-90
2021/01/22 04:11:34;;;;;;;0.00;0.00;;;6.80;90.20;;;;;;6217346;23;19997;-90
2021/01/22 04:14:00;;;;;;;0.00;0.00;;;6.80;90.20;;;;;;6216112;23;20013;-90
2021/01/22 04:16:27;;;;;;;0.00;0.00;;;6.80;90.20;;;;;;6214777;23;20020;-90
2021/01/22 04:18:53;;;;;;;0.00;0.00;;;6.80;90.20;;;;;;6189518;23;20380;-89
2021/01/22 04:21:19;;;;;;;0.27;0.20;;;6.70;90.10;;;;;;6216956;23;20012;-90
2021/01/22 04:23:46;;;;;;;0.00;0.00;;;6.80;90.20;;;;;;6217524;23;20257;-90
2021/01/22 04:26:12;;;;;;;0.00;0.00;;;6.70;90.10;;;;;;6190213;23;20026;-89
2021/01/22 04:28:39;;;;;;;0.00;0.00;;;6.80;90.20;;;;;;6212793;23;20016;-92
2021/01/22 04:31:05;;;;;;;0.03;0.00;;;6.70;90.10;;;;;;6214446;23;20001;-90
2021/01/22 04:33:31;;;;;;;0.00;0.00;;;6.70;90.20;;;;;;6215783;23;20020;-90
2021/01/22 04:35:58;;;;;;;0.00;0.00;;;6.80;90.20;;;;;;6215723;23;20272;-91
2021/01/22 04:38:24;;;;;;;0.00;0.00;;;6.80;90.20;;;;;;6215452;23;20485;-89
2021/01/22 04:40:51;;;;;;;0.00;0.00;;;6.80;90.10;;;;;;6214982;23;20372;-92
2021/01/22 04:43:17;;;;;;;0.00;0.00;;;6.80;90.10;;;;;;6215678;23;20000;-91
2021/01/22 04:45:44;;;;;;;0.00;0.00;;;6.80;90.10;;;;;;6215494;23;20005;-89
2021/01/22 04:48:10;;;;;;;0.00;0.00;;;6.80;90.10;;;;;;6216372;23;19992;-90
2021/01/22 04:50:37;;;;;;;1.17;0.20;;;6.80;90.10;;;;;;6217439;23;20257;-91
2021/01/22 04:53:07;;;;;;;0.00;0.00;;;6.80;90.00;;;;;;6216922;23;20032;-88
2021/01/22 04:55:34;;;;;;;0.00;0.00;;;6.80;90.00;;;;;;6189848;23;20380;-92
2021/01/22 04:58:02;;;;;;;0.00;0.00;;;6.80;90.10;;;;;;6216133;23;20008;-91
2021/01/22 05:00:28;;;;;;;0.10;0.10;;;6.80;90.00;;;;;;6213862;23;20012;-92
2021/01/22 05:02:55;;;;;;;0.00;0.00;;;6.80;90.10;;;;;;6217494;23;20005;-93
2021/01/22 05:05:21;;;;;;;0.00;0.00;;;6.70;90.00;;;;;;6216877;23;20003;-92
2021/01/22 05:07:48;;;;;;;0.77;0.27;;;6.70;90.10;;;;;;6216742;23;20004;-92
2021/01/22 05:10:14;;;;;;;1.08;0.65;;;6.80;90.10;;;;;;6215906;23;19997;-94
2021/01/22 05:12:41;;;;;;;0.27;0.07;;;6.80;90.10;;;;;;6215963;23;20019;-91
2021/01/22 05:15:21;;;;;;;0.00;0.00;;;6.80;90.10;;;;;;6216955;23;19997;-92
2021/01/22 05:18:04;;;;;;;0.00;0.00;;;6.90;90.00;;;;;;6216171;23;20001;-91
2021/01/22 05:20:40;;;;;;;0.00;0.00;;;6.90;90.00;;;;;;6214353;23;20380;-93
2021/01/22 05:23:07;;;;;;;0.00;0.00;;;6.80;90.00;;;;;;6215555;23;20008;-90
2021/01/22 05:25:54;;;;;;;0.00;0.00;;;6.80;90.00;;;;;;6215590;23;20384;-92
2021/01/22 05:28:40;;;;;;;0.00;0.00;;;6.80;90.00;;;;;;6214765;23;20484;-91
2021/01/22 05:31:10;;;;;;;0.00;0.00;;;6.80;90.00;;;;;;6214841;23;20001;-90
2021/01/22 05:33:40;;;;;;;0.00;0.00;;;6.80;90.00;;;;;;6213677;23;20011;-91
2021/01/22 05:36:25;;;;;;;0.00;0.00;;;6.80;90.00;;;;;;6215076;23;20007;-92
2021/01/22 05:38:52;;;;;;;0.00;0.00;;;6.80;90.00;;;;;;6215561;23;19996;-91
2021/01/22 05:41:19;;;;;;;0.00;0.00;;;6.80;90.00;;;;;;6216414;23;19996;-91
2021/01/22 05:43:46;;;;;;;0.00;0.00;;;6.80;90.00;;;;;;6216371;23;20007;-90
2021/01/22 05:46:14;;;;;;;0.00;0.00;;;6.80;90.00;;;;;;6213585;23;20277;-92
2021/01/22 05:48:40;;;;;;;0.00;0.00;;;6.90;90.00;;;;;;6215562;23;20189;-90
2021/01/22 05:51:07;;;;;;;0.20;0.00;;;6.90;90.00;;;;;;6218420;23;20360;-92
2021/01/22 05:53:33;;;;;;;0.33;0.00;;;6.80;89.90;;;;;;6215009;23;20001;-92
2021/01/22 05:56:10;;;;;;;0.00;0.00;;;6.80;89.90;;;;;;6216250;23;20004;-93
2021/01/22 05:58:38;;;;;;;0.10;0.07;;;6.80;90.00;;;;;;6215302;23;20009;-91
2021/01/22 06:01:05;;;;;;;0.00;0.00;;;6.80;90.00;;;;;;6213133;23;20288;-90
2021/01/22 06:03:32;;;;;;;0.00;0.00;;;6.70;89.90;;;;;;6217598;23;20040;-91
2021/01/22 06:05:58;;;;;;;0.00;0.00;;;6.70;90.00;;;;;;6216249;23;19993;-91
2021/01/22 06:08:24;;;;;;;0.00;0.00;;;6.70;90.00;;;;;;6215860;23;19997;-91
2021/01/22 06:10:52;;;;;;;0.80;0.22;;;6.70;90.00;;;;;;6214866;23;20001;-92
2021/01/22 06:13:26;;;;;;;0.00;0.00;;;6.70;90.00;;;;;;6213678;23;20008;-89
2021/01/22 06:15:58;;;;;;;0.00;0.00;;;6.80;90.00;;;;;;6188336;23;20009;-91
2021/01/22 06:18:31;;;;;;;0.00;0.00;;;6.70;90.00;;;;;;6214260;23;20001;-91
2021/01/22 06:21:23;;;;;;;0.03;0.03;;;6.80;90.00;;;;;;6216952;23;19996;-90
2021/01/22 06:23:49;;;;;;;0.20;0.10;;;6.80;90.00;;;;;;6192003;23;20265;-88
2021/01/22 06:26:16;;;;;;;0.20;0.20;;;6.80;90.30;;;;;;6189840;23;20226;-91
2021/01/22 06:28:43;;;;;;;0.00;0.00;;;6.80;90.00;;;;;;6215112;23;20023;-92
2021/01/22 06:31:10;;;;;;;0.00;0.00;;;6.80;89.90;;;;;;6215041;23;20012;-91
2021/01/22 06:33:36;;;;;;;2.63;0.10;;;6.80;89.90;;;;;;6216811;23;20231;-92
2021/01/22 06:36:05;;;;;;;0.00;0.00;;;6.80;89.90;;;;;;6189082;23;20008;-88
2021/01/22 06:38:31;;;;;;;0.00;0.00;;;6.80;89.90;;;;;;6216781;23;20265;-90
2021/01/22 06:40:58;;;;;;;0.10;0.00;;;6.80;90.00;;;;;;6214468;23;20012;-93
2021/01/22 06:43:24;;;;;;;0.73;0.30;;;6.70;90.30;;;;;;6214247;23;20009;-91
2021/01/22 06:45:53;;;;;;;0.00;0.00;;;6.70;90.00;;;;;;6215053;23;20001;-93
2021/01/22 06:48:32;;;;;;;0.03;0.00;;;6.70;90.00;;;;;;6190689;23;20233;-93
2021/01/22 07:27:10;;;;;;;0.20;0.20;;;6.50;90.10;;;;;;6102001;23;20009;-93
2021/01/22 07:39:30;;;;;;;0.00;0.00;;;6.30;90.10;;;;;;6228670;22;20024;-93
2021/01/22 08:01:36;;;;;;;0.20;0.10;;;6.20;90.40;;;;;;6185867;22;20528;-94
2021/01/22 08:04:11;;;;;;;0.00;0.00;;;6.20;90.40;;;;;;6149587;23;20019;-93
2021/01/22 08:12:57;;;;;;;0.00;0.00;;;7.40;89.10;;;;;;6247347;22;20024;-93
2021/01/22 08:15:42;;;;;;;0.00;0.00;;;8.50;86.00;;;;;;6223047;23;20014;-93
2021/01/22 08:40:21;;;;;;;0.43;0.10;;;10.20;83.00;;;;;;6249506;23;20024;-94
2021/01/22 08:53:58;;;;;;;0.20;0.15;;;10.30;83.90;;;;;;6223160;22;20030;-94
2021/01/22 08:56:24;;;;;;;0.00;0.00;;;10.30;83.80;;;;;;6200895;23;19993;-95
2021/01/22 08:59:01;;;;;;;0.13;0.03;;;10.10;84.10;;;;;;6171779;23;20007;-94
2021/01/22 09:02:22;;;;;;;0.05;0.00;;;9.80;85.10;;;;;;6198037;23;20005;-92
2021/01/22 09:04:48;;;;;;;0.00;0.00;;;9.30;86.20;;;;;;6190716;23;19996;-91
2021/01/22 09:07:17;;;;;;;0.00;0.00;;;8.80;87.70;;;;;;6188104;22;20059;-91
2021/01/22 09:09:46;;;;;;;0.32;0.20;;;8.50;88.60;;;;;;6220003;22;20056;-94
2021/01/22 09:12:28;;;;;;;0.30;0.10;;;8.30;89.30;;;;;;6220585;22;20064;-93
2021/01/22 09:15:07;;;;;;;0.10;0.00;;;8.00;89.70;;;;;;6198257;22;20060;-92
2021/01/22 09:17:54;;;;;;;0.23;0.00;;;7.90;90.00;;;;;;6241648;23;20068;-93
2021/01/22 09:20:41;;;;;;;0.33;0.13;;;7.80;90.10;;;;;;6191129;23;20011;-94
2021/01/22 09:23:08;;;;;;;0.50;0.10;;;7.70;90.10;;;;;;6194937;23;20004;-93
2021/01/22 09:29:13;;;;;;;7.10;0.20;;;7.60;90.10;;;;;;6183786;23;20012;-92
2021/01/22 09:31:39;;;;;;;0.27;0.10;;;7.60;90.10;;;;;;6221418;23;20371;-94
2021/01/22 09:34:06;;;;;;;0.00;0.00;;;7.50;90.00;;;;;;6198280;23;20008;-93
2021/01/22 09:36:32;;;;;;;0.47;0.20;;;7.50;90.00;;;;;;6197853;23;20000;-94
2021/01/22 09:39:01;;;;;;;0.10;0.10;;;7.50;90.00;;;;;;6198583;23;20029;-93
2021/01/22 09:41:30;;;;;;;0.30;0.07;;;7.50;89.90;;;;;;6198264;23;20000;-93
2021/01/22 09:43:56;;;;;;;1.20;0.57;;;7.50;89.80;;;;;;6172714;23;20151;-92
2021/01/22 09:47:05;;;;;;;;;;;;;;;;;;;;;
2021/01/22 09:49:32;;;;;;;0.08;0.08;;;7.50;89.60;;;;;;6204900;23;20000;-95
2021/01/22 09:55:30;;;;;;;0.20;0.10;;;7.60;89.30;;;;;;6193986;23;20027;-93
2021/01/22 09:58:03;;;;;;;0.20;0.13;;;7.60;89.00;;;;;;6197934;23;20009;-93
2021/01/22 10:00:30;;;;;;;1.75;0.00;;;7.70;89.00;;;;;;6196590;23;20007;-94
2021/01/22 10:02:56;;;;;;;0.45;0.20;;;7.60;88.80;;;;;;6200436;23;19992;-94
2021/01/22 10:05:23;;;;;;;0.55;0.20;;;7.70;88.80;;;;;;6197536;23;20035;-92
2021/01/22 10:07:49;;;;;;;0.65;0.00;;;7.80;88.70;;;;;;6198611;23;20051;-93
2021/01/22 10:10:24;;;;;;;0.10;0.10;;;7.80;88.60;;;;;;6197893;23;20031;-91
2021/01/22 10:13:04;;;;;;;;;;;;;;;;;;;;;
2021/01/22 10:15:32;;;;;;;0.00;0.00;;;7.80;88.30;;;;;;6152716;23;20020;-92
2021/01/22 10:22:42;;;;;;;0.00;0.00;;;7.90;88.20;;;;;;6117395;23;20370;-94
2021/01/22 10:25:12;;;;;;;0.10;0.00;;;7.90;88.00;;;;;;6006593;23;20142;-92
2021/01/22 10:36:07;;;;;;;0.00;0.00;;;8.40;86.60;;;;;;6242818;22;20024;-94
2021/01/22 10:38:34;;;;;;;0.00;0.00;;;8.50;86.50;;;;;;6221874;23;20117;-92
2021/01/22 10:41:03;;;;;;;0.00;0.00;;;8.50;86.50;;;;;;6221703;23;20000;-92
2021/01/22 10:43:34;;;;;;;0.00;0.00;;;8.50;86.50;;;;;;6222843;23;20280;-92
2021/01/22 10:48:59;;;;;;;0.00;0.00;;;8.60;86.50;;;;;;6242734;23;19906;-92
2021/01/22 10:51:25;;;;;;;0.00;0.00;;;8.70;86.20;;;;;;6221267;23;20007;-91
2021/01/22 11:05:57;;;;;;;0.10;0.10;;;9.90;83.30;;;;;;6249918;22;20024;-93
2021/01/22 11:08:23;;;;;;;1.65;0.38;;;9.90;83.20;;;;;;6201412;23;20010;-90
2021/01/22 11:10:50;;;;;;;0.30;0.00;;;10.00;83.10;;;;;;6229752;23;20004;-91
2021/01/22 11:13:17;;;;;;;0.00;0.00;;;10.30;82.90;;;;;;6178926;23;20004;-91
2021/01/22 11:15:43;;;;;;;0.00;0.00;;;10.40;82.40;;;;;;6233267;22;20367;-89
2021/01/22 11:18:10;;;;;;;0.00;0.00;;;10.50;82.20;;;;;;6208822;23;20006;-91
2021/01/22 11:20:37;;;;;;;0.00;0.00;;;10.40;82.40;;;;;;6203805;23;20238;-90
2021/01/22 11:23:03;;;;;;;0.10;0.00;;;10.40;82.70;;;;;;6256460;23;20280;-92
2021/01/22 11:25:30;;;;;;;0.00;0.00;;;10.30;83.10;;;;;;6200101;23;20008;-88
2021/01/22 11:27:56;;;;;;;0.65;0.03;;;10.30;83.30;;;;;;6205497;23;19996;-94
2021/01/22 11:30:30;;;;;;;0.03;0.00;;;10.30;83.30;;;;;;6227854;23;20379;-92
2021/01/22 12:57:14;;;;;;;0.17;0.00;;;12.30;81.10;;;;;;6254065;22;20403;-94
2021/01/22 13:00:37;;;;;;;;;;;;;;;;;;;;;
2021/01/22 13:07:28;;;;;;;0.00;0.00;;;11.20;83.80;;;;;;6134048;23;20042;-90
2021/01/22 13:10:39;;;;;;;0.00;0.00;;;10.90;84.40;;;;;;6076795;23;20394;-94
2021/01/22 13:33:12;;;;;;;0.00;0.00;;;10.60;84.30;;;;;;6216980;22;20027;-93
2021/01/22 13:42:37;;;;;;;0.00;0.00;;;10.80;83.70;;;;;;6103834;23;20014;-89
2021/01/22 13:45:13;;;;;;;0.00;0.00;;;10.80;83.20;;;;;;6072199;23;20010;-93
2021/01/22 13:47:39;;;;;;;0.05;0.05;;;10.80;83.20;;;;;;6048084;23;20015;-93
2021/01/22 13:53:58;;;;;;;;;;;;;;;;;;;;;
2021/01/22 13:56:28;;;;;;;0.00;0.00;;;10.70;83.50;;;;;;6073934;23;20022;-94
2021/01/22 14:09:23;;;;;;;0.00;0.00;;;10.30;84.00;;;;;;6172649;23;20005;-94
2021/01/22 14:11:49;;;;;;;0.00;0.00;;;10.40;84.10;;;;;;6157713;23;19998;-91
2021/01/22 14:14:16;;;;;;;4.55;0.20;;;10.40;83.90;;;;;;6109066;23;20001;-95
2021/01/22 14:16:54;;;;;;;0.00;0.00;;;10.40;83.80;;;;;;6159097;23;20280;-94
2021/01/22 14:19:29;;;;;;;0.30;0.00;;;10.30;83.70;;;;;;6130217;23;20009;-93
2021/01/22 14:36:07;;;;;;;;;;;;;;;;;;;;;
2021/01/22 14:40:04;;;;;;;;;;;;;;;;;;;;;
2021/01/22 14:45:57;;;;;;;0.00;0.00;;;10.90;81.70;;;;;;6099708;23;20012;-94
2021/01/22 14:54:20;;;;;;;0.00;0.00;;;10.80;82.00;;;;;;6246274;23;20020;-94
2021/01/22 15:01:07;;;;;;;0.00;0.00;;;10.90;81.70;;;;;;6116341;23;20014;-95
2021/01/22 15:03:34;;;;;;;0.10;0.00;;;10.90;81.80;;;;;;6142988;23;20028;-93
2021/01/22 15:50:58;;;;;;;0.00;0.00;;;10.50;82.10;;;;;;6198611;22;20024;-91
2021/01/22 16:01:49;;;;;;;0.00;0.00;;;10.20;82.60;;;;;;6220511;22;20024;-94
2021/01/22 16:07:14;;;;;;;0.00;0.00;;;10.20;82.70;;;;;;6218488;22;20027;-91
2021/01/22 16:16:31;;;;;;;0.00;0.00;;;10.00;83.10;;;;;;6192123;22;20420;-88
2021/01/22 16:19:52;;;;;;;0.00;0.00;;;9.80;83.30;;;;;;6193687;23;20402;-89
2021/01/22 16:22:45;;;;;;;2.13;0.45;;;9.80;83.40;;;;;;6244927;23;20011;-91
2021/01/22 16:31:52;;;;;;;;;;;;;;;;;;;;;
2021/01/22 16:34:33;;;;;;;0.75;0.03;;;9.40;83.90;;;;;;6191917;23;20004;-91
2021/01/22 16:46:46;;;;;;;0.00;0.00;;;9.20;84.10;;;;;;6277686;22;20024;-93
2021/01/22 16:49:13;;;;;;;0.70;0.10;;;9.20;84.20;;;;;;6220744;23;20010;-92
2021/01/22 16:51:39;;;;;;;0.00;0.00;;;9.10;84.30;;;;;;6219699;23;20225;-92
2021/01/22 16:54:09;;;;;;;0.25;0.15;;;9.10;84.30;;;;;;6220142;23;20008;-90
2021/01/22 16:56:45;;;;;;;0.00;0.00;;;9.00;84.30;;;;;;6249964;23;20364;-93
2021/01/22 16:59:11;;;;;;;0.75;0.45;;;9.00;84.30;;;;;;6220684;22;20001;-93
2021/01/22 17:01:38;;;;;;;0.00;0.00;;;8.90;84.20;;;;;;6221119;23;20019;-92
2021/01/22 17:04:04;;;;;;;0.00;0.00;;;8.90;84.30;;;;;;6220932;23;20007;-93
2021/01/22 17:06:33;;;;;;;0.47;0.10;;;8.90;84.30;;;;;;6249640;23;20000;-95
2021/01/22 17:09:00;;;;;;;0.00;0.00;;;8.80;84.30;;;;;;6260224;23;20004;-93
2021/01/22 17:11:26;;;;;;;0.00;0.00;;;8.80;84.30;;;;;;6230938;23;20053;-92
2021/01/22 17:13:55;;;;;;;0.00;0.00;;;8.80;84.30;;;;;;6224045;23;19996;-90
2021/01/22 17:16:21;;;;;;;0.00;0.00;;;8.70;84.30;;;;;;6223124;22;20015;-92
2021/01/22 17:18:47;;;;;;;0.10;0.08;;;8.70;84.40;;;;;;6224196;23;20383;-92
2021/01/22 17:21:14;;;;;;;0.00;0.00;;;8.70;84.50;;;;;;6222496;23;20224;-91
2021/01/22 17:23:40;;;;;;;0.90;0.40;;;8.70;84.50;;;;;;6196601;23;20000;-90
2021/01/22 17:26:07;;;;;;;1.08;0.17;;;8.60;84.60;;;;;;6220388;23;20009;-90
2021/01/22 17:28:33;;;;;;;0.00;0.00;;;8.60;84.60;;;;;;6223074;23;19993;-92
2021/01/22 17:31:02;;;;;;;0.00;0.00;;;8.50;84.60;;;;;;6223012;23;20004;-94
2021/01/22 17:33:49;;;;;;;0.10;0.00;;;8.50;84.70;;;;;;6218964;23;19999;-92
2021/01/22 17:36:15;;;;;;;0.65;0.15;;;8.40;84.70;;;;;;6229418;22;20296;-93
2021/01/22 17:38:44;;;;;;;0.20;0.10;;;8.40;84.80;;;;;;6228339;23;20004;-92
2021/01/22 17:41:13;;;;;;;0.00;0.00;;;8.30;84.80;;;;;;6224171;23;20004;-91
2021/01/22 17:43:40;;;;;;;0.20;0.10;;;8.30;84.90;;;;;;6221199;23;20000;-89
2021/01/22 17:46:06;;;;;;;0.00;0.00;;;8.20;84.90;;;;;;6246257;23;20012;-89
2021/01/22 17:49:12;;;;;;;0.00;0.00;;;8.30;85.00;;;;;;6250188;23;20000;-91
2021/01/22 17:58:01;;;;;;;0.00;0.00;;;8.10;85.00;;;;;;6231434;23;20014;-90
2021/01/22 18:00:28;;;;;;;0.10;0.10;;;8.10;85.00;;;;;;6196971;23;20011;-92
2021/01/22 18:02:55;;;;;;;0.00;0.00;;;8.10;85.00;;;;;;6248057;23;20395;-90
2021/01/22 18:05:21;;;;;;;4.40;0.10;;;8.00;85.00;;;;;;6194353;23;20256;-94
2021/01/22 18:07:48;;;;;;;0.52;0.08;;;7.90;85.00;;;;;;6197101;23;20007;-88
2021/01/22 18:10:14;;;;;;;0.30;0.17;;;8.00;85.10;;;;;;6225145;23;19996;-93
2021/01/22 18:12:41;;;;;;;0.22;0.08;;;7.90;85.10;;;;;;6222414;23;20007;-93
2021/01/22 18:15:08;;;;;;;0.00;0.00;;;7.90;85.10;;;;;;6202324;23;20012;-94
2021/01/22 18:17:35;;;;;;;0.32;0.10;;;7.90;85.20;;;;;;6252637;23;20003;-91
2021/01/22 18:20:02;;;;;;;1.40;0.35;;;7.90;85.20;;;;;;6231995;23;20000;-94
2021/01/22 18:22:32;;;;;;;0.45;0.28;;;7.80;85.20;;;;;;6230420;23;20004;-91
2021/01/22 18:24:59;;;;;;;0.10;0.00;;;7.80;85.20;;;;;;6225440;23;20004;-94
2021/01/22 18:27:25;;;;;;;2.22;0.30;;;7.80;85.20;;;;;;6204849;23;20276;-94
2021/01/22 18:29:52;;;;;;;0.00;0.00;;;7.80;85.20;;;;;;6222216;23;19996;-93
2021/01/22 18:32:18;;;;;;;0.60;0.15;;;7.80;85.20;;;;;;6218753;23;20035;-90
2021/01/22 18:34:45;;;;;;;0.20;0.10;;;7.70;85.20;;;;;;6167557;23;20001;-92
2021/01/22 18:37:12;;;;;;;0.10;0.05;;;7.70;85.10;;;;;;6168657;23;20008;-92
2021/01/22 18:39:41;;;;;;;0.20;0.00;;;7.70;85.10;;;;;;6193754;23;20294;-92
2021/01/22 18:42:08;;;;;;;1.45;0.30;;;7.70;85.20;;;;;;6193339;23;20015;-91
2021/01/22 18:44:34;;;;;;;0.00;0.00;;;7.70;85.10;;;;;;6193059;23;20004;-91
2021/01/22 18:47:02;;;;;;;0.00;0.00;;;7.70;85.10;;;;;;6192172;23;20012;-91
2021/01/22 18:49:29;;;;;;;0.00;0.00;;;7.70;85.10;;;;;;6195502;23;20004;-92
2021/01/22 18:51:55;;;;;;;0.10;0.00;;;7.70;85.10;;;;;;6244197;23;20001;-90
2021/01/22 18:54:22;;;;;;;0.20;0.10;;;7.70;85.10;;;;;;6198454;23;20123;-94
2021/01/22 18:56:48;;;;;;;0.10;0.10;;;7.60;85.10;;;;;;6222704;23;20008;-89
2021/01/22 18:59:14;;;;;;;0.00;0.00;;;7.60;85.10;;;;;;6194775;23;20004;-90
2021/01/22 19:01:41;;;;;;;0.43;0.20;;;7.60;85.20;;;;;;6196448;23;20019;-93
2021/01/22 19:04:07;;;;;;;0.00;0.00;;;7.50;85.20;;;;;;6224095;23;20433;-92
2021/01/22 19:06:34;;;;;;;0.20;0.20;;;7.50;85.20;;;;;;6169546;23;20011;-91
2021/01/22 19:09:00;;;;;;;0.10;0.00;;;7.50;85.30;;;;;;6222924;23;20000;-91
2021/01/22 19:11:27;;;;;;;0.00;0.00;;;7.50;85.40;;;;;;6195965;23;20008;-92
2021/01/22 19:13:54;;;;;;;0.17;0.00;;;7.40;85.30;;;;;;6200792;23;20007;-89
2021/01/22 19:16:22;;;;;;;0.00;0.00;;;7.50;85.30;;;;;;6201845;23;20016;-93
2021/01/22 19:18:50;;;;;;;0.00;0.00;;;7.40;85.30;;;;;;6180150;23;20394;-92
2021/01/22 19:21:25;;;;;;;1.85;0.10;;;7.40;85.30;;;;;;6204523;23;20000;-94
2021/01/22 19:23:52;;;;;;;0.43;0.25;;;7.40;85.30;;;;;;6205155;23;20000;-94
2021/01/22 19:26:20;;;;;;;0.98;0.10;;;7.40;85.20;;;;;;6202879;23;20000;-95
2021/01/22 19:28:47;;;;;;;0.20;0.10;;;7.40;85.30;;;;;;6207173;23;20004;-94
2021/01/22 19:31:13;;;;;;;0.00;0.00;;;7.40;85.20;;;;;;6202678;23;20004;-94
2021/01/22 19:33:40;;;;;;;0.00;0.00;;;7.40;85.20;;;;;;6230133;23;20004;-92
2021/01/22 19:36:07;;;;;;;0.00;0.00;;;7.40;85.10;;;;;;6197510;23;20012;-89
2021/01/22 19:38:33;;;;;;;0.55;0.30;;;7.40;85.10;;;;;;6197351;23;20253;-92